Time;durP1;ratioP1;P1;durP2;ratioP2;P2;SDS_P1;SDS_P2;PMS_P1;PMS_P2;Temp;Humidity;BMP_temperature;BMP_pressure;BME280_temperature;BME280_humidity;BME280_pressure;Samples;Min_cycle;Max_cycle;Signal;HPM_P1;HPM_P2
2022/08/18 00:02:00;;;;;;;55.40;49.40;;;;;;;;;;5135486;27;20453;-65
2022/08/18 00:04:27;;;;;;;64.47;54.13;;;;;;;;;;5135360;27;20505;-65
2022/08/18 00:06:55;;;;;;;61.87;54.87;;;;;;;;;;5135106;27;20533;-65
2022/08/18 00:09:22;;;;;;;63.10;54.90;;;;;;;;;;5134757;27;20530;-65
2022/08/18 00:11:49;;;;;;;63.17;53.83;;;;;;;;;;5135728;27;20481;-64
2022/08/18 00:14:19;;;;;;;69.43;58.67;;;;;;;;;;5134935;27;20469;-65
2022/08/18 00:16:46;;;;;;;65.60;54.10;;;;;;;;;;5135616;27;20435;-65
2022/08/18 00:19:13;;;;;;;65.87;57.37;;;;;;;;;;5134775;27;20943;-65
2022/08/18 00:21:40;;;;;;;66.57;57.20;;;;;;;;;;5135118;27;20530;-65
2022/08/18 00:24:08;;;;;;;71.17;57.00;;;;;;;;;;5134689;27;20439;-66
2022/08/18 00:26:35;;;;;;;68.00;60.57;;;;;;;;;;5134658;27;20442;-65
2022/08/18 00:29:02;;;;;;;68.67;57.77;;;;;;;;;;5134942;27;20453;-65
2022/08/18 00:31:31;;;;;;;74.60;61.90;;;;;;;;;;5134805;27;20570;-65
2022/08/18 00:33:59;;;;;;;68.23;60.40;;;;;;;;;;5134962;27;20444;-64
2022/08/18 00:36:26;;;;;;;72.70;62.07;;;;;;;;;;5134807;27;20450;-65
2022/08/18 00:38:53;;;;;;;75.30;64.37;;;;;;;;;;5134895;27;20798;-64
2022/08/18 00:41:25;;;;;;;76.20;62.13;;;;;;;;;;5134761;27;20441;-65
2022/08/18 00:43:53;;;;;;;76.30;62.80;;;;;;;;;;5134935;27;20447;-65
2022/08/18 00:46:22;;;;;;;79.87;67.13;;;;;;;;;;5134302;27;20956;-65
2022/08/18 00:48:51;;;;;;;82.07;67.80;;;;;;;;;;5134697;27;20867;-65
2022/08/18 00:51:22;;;;;;;82.63;67.40;;;;;;;;;;5134449;27;20522;-65
2022/08/18 00:53:51;;;;;;;86.60;68.77;;;;;;;;;;5134361;27;20423;-65
2022/08/18 00:56:23;;;;;;;79.23;65.23;;;;;;;;;;5134479;27;20506;-65
2022/08/18 00:58:53;;;;;;;88.30;68.80;;;;;;;;;;5134426;27;20904;-64
2022/08/18 01:01:22;;;;;;;82.70;69.10;;;;;;;;;;5134496;27;20450;-65
2022/08/18 01:03:52;;;;;;;82.60;70.27;;;;;;;;;;5134461;27;20450;-64
2022/08/18 01:06:24;;;;;;;88.17;72.23;;;;;;;;;;5134187;28;20430;-65
2022/08/18 01:08:51;;;;;;;92.60;74.07;;;;;;;;;;5134868;28;20420;-65
2022/08/18 01:11:18;;;;;;;93.40;72.00;;;;;;;;;;5134263;28;20572;-65
2022/08/18 01:13:46;;;;;;;93.87;74.03;;;;;;;;;;5134080;28;20999;-65
2022/08/18 01:21:52;;;;;;;113.23;82.73;;;;;;;;;;5135417;27;20764;-65
2022/08/18 01:25:58;;;;;;;114.97;82.57;;;;;;;;;;5139150;27;20440;-65
2022/08/18 01:27:13;;;;;;;113.67;82.73;;;;;;;;;;5138074;27;20425;-65
2022/08/18 01:29:41;;;;;;;115.70;87.17;;;;;;;;;;5138532;27;20443;-65
2022/08/18 01:32:08;;;;;;;109.97;85.37;;;;;;;;;;5138229;27;20487;-64
2022/08/18 01:34:35;;;;;;;115.73;84.00;;;;;;;;;;5138389;27;20469;-65
2022/08/18 01:37:04;;;;;;;123.83;87.27;;;;;;;;;;5138253;27;20448;-65
2022/08/18 01:39:33;;;;;;;115.00;82.57;;;;;;;;;;5138540;27;20442;-65
2022/08/18 01:42:03;;;;;;;107.00;80.10;;;;;;;;;;5138148;27;20800;-65
2022/08/18 01:44:32;;;;;;;104.90;78.57;;;;;;;;;;5138502;27;20451;-65
2022/08/18 01:47:00;;;;;;;107.57;76.27;;;;;;;;;;5137767;27;20438;-65
2022/08/18 01:49:28;;;;;;;97.57;66.07;;;;;;;;;;5138080;27;20527;-65
2022/08/18 01:51:55;;;;;;;101.23;72.83;;;;;;;;;;5137876;27;20462;-65
2022/08/18 01:54:22;;;;;;;111.20;72.30;;;;;;;;;;5137948;27;20440;-65
2022/08/18 01:56:52;;;;;;;109.37;73.10;;;;;;;;;;5137529;27;20448;-64
2022/08/18 01:59:19;;;;;;;102.40;71.67;;;;;;;;;;5137920;27;20430;-64
2022/08/18 02:01:47;;;;;;;101.73;68.10;;;;;;;;;;5137964;27;20442;-65
2022/08/18 02:04:15;;;;;;;99.83;69.20;;;;;;;;;;5137918;27;20533;-66
2022/08/18 02:06:43;;;;;;;104.40;69.20;;;;;;;;;;5137371;27;20525;-65
2022/08/18 02:09:10;;;;;;;99.60;66.07;;;;;;;;;;5137471;27;20438;-65
2022/08/18 02:11:37;;;;;;;101.40;66.40;;;;;;;;;;5137243;27;20505;-65
2022/08/18 02:14:06;;;;;;;97.77;68.70;;;;;;;;;;5137684;27;20481;-65
2022/08/18 02:16:34;;;;;;;93.13;64.60;;;;;;;;;;5136367;28;20896;-65
2022/08/18 02:19:02;;;;;;;105.27;69.30;;;;;;;;;;5135969;28;20447;-65
2022/08/18 02:21:29;;;;;;;104.60;67.80;;;;;;;;;;5136107;28;20474;-65
2022/08/18 02:23:57;;;;;;;98.23;68.90;;;;;;;;;;5136230;28;20438;-65
2022/08/18 02:26:24;;;;;;;91.80;63.00;;;;;;;;;;5136094;28;20635;-65
2022/08/18 02:28:51;;;;;;;92.67;64.23;;;;;;;;;;5136132;28;20444;-65
2022/08/18 02:31:25;;;;;;;88.53;66.00;;;;;;;;;;5136003;28;20430;-65
2022/08/18 02:33:53;;;;;;;94.83;64.67;;;;;;;;;;5135638;27;20437;-65
2022/08/18 02:36:20;;;;;;;90.87;64.83;;;;;;;;;;5136152;28;20442;-67
2022/08/18 02:38:47;;;;;;;89.20;61.57;;;;;;;;;;5135660;28;20525;-65
2022/08/18 02:41:14;;;;;;;87.43;61.67;;;;;;;;;;5135521;28;20518;-65
2022/08/18 02:43:43;;;;;;;87.30;62.70;;;;;;;;;;5135734;28;20533;-65
2022/08/18 02:46:10;;;;;;;89.43;62.33;;;;;;;;;;5135720;28;20441;-65
2022/08/18 02:48:39;;;;;;;89.80;63.60;;;;;;;;;;5135854;28;20435;-65
2022/08/18 02:51:07;;;;;;;85.50;62.80;;;;;;;;;;5135670;28;20526;-65
2022/08/18 02:53:34;;;;;;;88.10;62.93;;;;;;;;;;5135477;28;20439;-65
2022/08/18 02:56:14;;;;;;;88.50;62.33;;;;;;;;;;5136017;28;20445;-66
2022/08/18 02:58:41;;;;;;;85.50;61.40;;;;;;;;;;5135451;28;20430;-64
2022/08/18 03:01:08;;;;;;;87.97;60.77;;;;;;;;;;5135777;28;20785;-65
2022/08/18 03:03:36;;;;;;;87.97;60.73;;;;;;;;;;5135906;27;20439;-65
2022/08/18 03:06:04;;;;;;;93.03;62.97;;;;;;;;;;5135774;28;20443;-64
2022/08/18 03:08:32;;;;;;;87.40;62.80;;;;;;;;;;5135255;28;20438;-65
2022/08/18 03:10:59;;;;;;;92.80;65.00;;;;;;;;;;5135659;28;20475;-65
2022/08/18 03:13:29;;;;;;;89.87;62.30;;;;;;;;;;5135057;28;20487;-65
2022/08/18 03:15:56;;;;;;;88.13;64.73;;;;;;;;;;5097798;27;1084368;-65
2022/08/18 03:18:23;;;;;;;86.43;60.33;;;;;;;;;;5136301;27;20200;-65
2022/08/18 03:20:50;;;;;;;92.03;64.77;;;;;;;;;;5136427;27;20460;-65
2022/08/18 03:23:19;;;;;;;84.40;60.93;;;;;;;;;;5136195;27;20526;-65
2022/08/18 03:25:47;;;;;;;93.07;63.97;;;;;;;;;;5136397;27;20471;-65
2022/08/18 03:28:14;;;;;;;89.73;58.67;;;;;;;;;;5136080;27;20514;-65
2022/08/18 03:30:42;;;;;;;94.87;63.00;;;;;;;;;;5136639;27;20470;-65
2022/08/18 03:33:09;;;;;;;95.40;65.80;;;;;;;;;;5135883;27;20477;-65
2022/08/18 03:35:37;;;;;;;92.57;64.53;;;;;;;;;;5135995;27;20443;-65
2022/08/18 03:38:04;;;;;;;91.17;63.10;;;;;;;;;;5135875;27;20529;-65
2022/08/18 03:40:33;;;;;;;101.00;68.47;;;;;;;;;;5135872;27;20525;-65
2022/08/18 03:43:05;;;;;;;98.37;65.60;;;;;;;;;;5135459;27;20450;-65
2022/08/18 03:45:32;;;;;;;90.70;61.93;;;;;;;;;;5134749;27;20434;-65
2022/08/18 03:48:00;;;;;;;92.07;64.47;;;;;;;;;;5135746;27;20443;-65
2022/08/18 03:50:27;;;;;;;90.23;63.30;;;;;;;;;;5135467;27;20477;-65
2022/08/18 03:52:58;;;;;;;82.17;58.70;;;;;;;;;;5135460;27;20481;-64
2022/08/18 03:55:26;;;;;;;87.97;61.70;;;;;;;;;;5135921;27;20770;-64
2022/08/18 03:57:58;;;;;;;89.83;60.50;;;;;;;;;;5135650;27;20436;-64
2022/08/18 04:00:26;;;;;;;96.60;61.07;;;;;;;;;;5135350;27;20464;-64
2022/08/18 04:02:53;;;;;;;95.90;62.70;;;;;;;;;;5135688;27;20444;-65
2022/08/18 04:05:20;;;;;;;93.80;63.70;;;;;;;;;;5135451;27;20489;-65
2022/08/18 04:07:48;;;;;;;98.33;65.13;;;;;;;;;;5135508;27;20496;-64
2022/08/18 04:10:15;;;;;;;94.33;64.27;;;;;;;;;;5134805;27;20514;-65
2022/08/18 04:12:42;;;;;;;91.90;63.90;;;;;;;;;;5135752;27;20562;-65
2022/08/18 04:15:11;;;;;;;99.97;65.53;;;;;;;;;;5135010;27;20577;-65
2022/08/18 04:17:39;;;;;;;91.93;63.37;;;;;;;;;;5135055;27;20514;-64
2022/08/18 04:20:06;;;;;;;87.73;62.80;;;;;;;;;;5134853;27;20448;-64
2022/08/18 04:22:34;;;;;;;94.90;64.67;;;;;;;;;;5134800;27;20487;-65
2022/08/18 04:25:01;;;;;;;93.60;68.23;;;;;;;;;;5135389;27;20435;-65
2022/08/18 04:27:28;;;;;;;91.13;61.63;;;;;;;;;;5134977;27;20439;-66
2022/08/18 04:29:56;;;;;;;95.97;66.77;;;;;;;;;;5135394;27;20438;-65
2022/08/18 04:32:25;;;;;;;99.47;69.17;;;;;;;;;;5134821;27;20474;-65
2022/08/18 04:34:53;;;;;;;99.53;67.17;;;;;;;;;;5134592;27;20927;-65
2022/08/18 04:37:20;;;;;;;92.60;65.50;;;;;;;;;;5134651;27;20450;-64
2022/08/18 04:39:48;;;;;;;90.57;63.97;;;;;;;;;;5134671;27;20589;-65
2022/08/18 04:42:15;;;;;;;97.90;65.63;;;;;;;;;;5134540;27;20943;-65
2022/08/18 04:44:42;;;;;;;103.73;65.53;;;;;;;;;;5134335;27;20453;-65
2022/08/18 04:47:11;;;;;;;98.10;69.63;;;;;;;;;;5135121;27;20537;-65
2022/08/18 04:49:42;;;;;;;105.63;66.67;;;;;;;;;;5134678;27;20445;-65
2022/08/18 04:55:06;;;;;;;100.27;67.87;;;;;;;;;;5091261;28;20419;-65
2022/08/18 04:57:33;;;;;;;110.30;72.50;;;;;;;;;;5124232;27;20943;-65
2022/08/18 05:00:00;;;;;;;123.40;72.40;;;;;;;;;;5134434;27;20435;-65
2022/08/18 05:02:28;;;;;;;118.87;71.57;;;;;;;;;;5134228;27;20453;-64
2022/08/18 05:04:56;;;;;;;116.20;73.10;;;;;;;;;;5134421;27;20430;-65
2022/08/18 05:07:24;;;;;;;113.20;72.40;;;;;;;;;;5134385;27;20650;-65
2022/08/18 05:09:53;;;;;;;116.47;72.33;;;;;;;;;;5134212;28;20446;-65
2022/08/18 05:12:21;;;;;;;113.73;74.67;;;;;;;;;;5134349;28;20474;-66
2022/08/18 05:14:48;;;;;;;121.10;72.93;;;;;;;;;;5133922;28;21010;-65
2022/08/18 05:17:16;;;;;;;115.83;71.07;;;;;;;;;;5134013;28;20921;-64
2022/08/18 05:19:44;;;;;;;108.47;71.07;;;;;;;;;;5134347;28;20841;-66
2022/08/18 05:22:16;;;;;;;114.93;74.17;;;;;;;;;;5134640;28;20436;-73
2022/08/18 05:24:44;;;;;;;119.20;73.30;;;;;;;;;;5134234;28;20418;-66
2022/08/18 05:27:11;;;;;;;125.20;75.30;;;;;;;;;;5133953;28;20486;-67
2022/08/18 05:29:39;;;;;;;114.87;72.50;;;;;;;;;;5134336;28;20479;-66
2022/08/18 05:32:07;;;;;;;119.60;73.20;;;;;;;;;;5134273;28;20440;-66
2022/08/18 05:34:34;;;;;;;106.00;71.87;;;;;;;;;;5133799;28;20541;-67
2022/08/18 05:37:05;;;;;;;111.83;73.80;;;;;;;;;;5134006;28;20532;-66
2022/08/18 05:39:38;;;;;;;107.93;70.27;;;;;;;;;;5134038;28;20543;-66
2022/08/18 05:42:08;;;;;;;114.40;70.70;;;;;;;;;;5134146;28;20416;-66
2022/08/18 05:44:37;;;;;;;104.40;68.93;;;;;;;;;;5134067;28;20457;-66
2022/08/18 05:47:05;;;;;;;104.43;68.53;;;;;;;;;;5133713;28;20474;-66
2022/08/18 05:49:33;;;;;;;109.70;70.30;;;;;;;;;;5133607;28;20439;-67
2022/08/18 05:52:01;;;;;;;110.97;71.47;;;;;;;;;;5134003;28;20443;-66
2022/08/18 05:57:21;;;;;;;107.80;70.27;;;;;;;;;;5133909;28;20410;-67
2022/08/18 05:59:49;;;;;;;113.70;73.03;;;;;;;;;;5133805;28;20418;-66
2022/08/18 06:02:18;;;;;;;114.90;71.77;;;;;;;;;;5134325;28;20534;-67
2022/08/18 06:04:48;;;;;;;111.60;73.13;;;;;;;;;;5133921;28;20440;-67
2022/08/18 06:07:18;;;;;;;119.53;71.43;;;;;;;;;;5134292;27;20942;-67
2022/08/18 06:09:49;;;;;;;112.27;72.63;;;;;;;;;;5137409;27;20858;-66
2022/08/18 06:12:22;;;;;;;115.87;73.83;;;;;;;;;;5137700;27;20419;-66
2022/08/18 06:14:51;;;;;;;107.93;69.07;;;;;;;;;;5137581;27;20484;-67
2022/08/18 06:17:25;;;;;;;120.27;72.47;;;;;;;;;;5137548;27;20863;-66
2022/08/18 06:19:57;;;;;;;120.23;73.30;;;;;;;;;;5137086;27;20513;-67
2022/08/18 06:22:29;;;;;;;122.30;73.07;;;;;;;;;;5137258;27;20528;-67
2022/08/18 06:25:01;;;;;;;124.63;71.67;;;;;;;;;;5137368;27;20514;-67
2022/08/18 06:27:38;;;;;;;126.50;72.03;;;;;;;;;;5137145;27;20433;-67
2022/08/18 06:30:08;;;;;;;123.37;72.27;;;;;;;;;;5136972;27;20480;-66
2022/08/18 06:32:43;;;;;;;106.33;68.20;;;;;;;;;;5137184;27;20526;-67
2022/08/18 06:35:16;;;;;;;116.97;71.60;;;;;;;;;;5137175;27;20428;-67
2022/08/18 06:40:29;;;;;;;115.37;67.53;;;;;;;;;;5136743;27;20412;-68
2022/08/18 06:42:59;;;;;;;108.77;66.63;;;;;;;;;;5137695;27;20527;-67
2022/08/18 06:45:31;;;;;;;110.43;67.07;;;;;;;;;;5136525;27;20492;-67
2022/08/18 06:48:02;;;;;;;110.37;69.47;;;;;;;;;;5137315;27;20458;-67
2022/08/18 06:50:34;;;;;;;111.40;65.80;;;;;;;;;;5137140;27;20442;-67
2022/08/18 06:53:02;;;;;;;107.73;64.87;;;;;;;;;;5137420;27;20475;-66
2022/08/18 06:55:33;;;;;;;97.27;62.70;;;;;;;;;;5136934;27;20426;-67
2022/08/18 06:58:04;;;;;;;101.93;65.87;;;;;;;;;;5137009;27;20441;-66
2022/08/18 07:00:32;;;;;;;89.90;60.87;;;;;;;;;;5137005;27;20763;-67
2022/08/18 07:03:02;;;;;;;96.50;63.53;;;;;;;;;;5136913;27;20844;-67
2022/08/18 07:05:29;;;;;;;107.67;66.23;;;;;;;;;;5135608;27;20438;-68
2022/08/18 07:08:10;;;;;;;101.13;62.27;;;;;;;;;;5136618;27;20463;-66
2022/08/18 07:10:38;;;;;;;90.73;62.27;;;;;;;;;;5136285;27;20472;-67
2022/08/18 07:13:15;;;;;;;90.17;61.17;;;;;;;;;;5136288;27;20484;-66
2022/08/18 07:15:44;;;;;;;88.53;59.50;;;;;;;;;;5136017;27;20467;-67
2022/08/18 07:18:13;;;;;;;93.70;58.70;;;;;;;;;;5136537;27;20443;-66
2022/08/18 07:20:44;;;;;;;83.20;57.43;;;;;;;;;;5135565;27;20527;-66
2022/08/18 07:23:21;;;;;;;83.47;56.10;;;;;;;;;;5136981;27;20474;-67
2022/08/18 07:25:50;;;;;;;84.10;57.37;;;;;;;;;;5136559;27;20431;-66
2022/08/18 07:28:27;;;;;;;84.33;57.00;;;;;;;;;;5136251;27;20593;-66
2022/08/18 07:31:07;;;;;;;84.80;56.07;;;;;;;;;;5136109;27;20425;-66
2022/08/18 07:33:34;;;;;;;80.87;56.13;;;;;;;;;;5135965;27;21081;-66
2022/08/18 07:36:05;;;;;;;79.03;54.67;;;;;;;;;;5135846;27;20772;-66
2022/08/18 07:38:34;;;;;;;82.10;55.77;;;;;;;;;;5136181;27;20855;-66
2022/08/18 07:41:03;;;;;;;80.87;55.97;;;;;;;;;;5135882;27;20531;-66
2022/08/18 07:43:36;;;;;;;78.03;53.90;;;;;;;;;;5135584;27;20460;-67
2022/08/18 07:46:08;;;;;;;78.07;54.73;;;;;;;;;;5136104;27;20478;-66
2022/08/18 07:48:35;;;;;;;80.37;53.50;;;;;;;;;;5136102;27;20433;-66
2022/08/18 07:51:07;;;;;;;74.27;51.67;;;;;;;;;;5135384;27;20444;-66
2022/08/18 07:53:41;;;;;;;76.80;54.80;;;;;;;;;;5135686;27;20467;-66
2022/08/18 07:56:17;;;;;;;74.20;53.07;;;;;;;;;;5135320;27;20424;-66
2022/08/18 07:58:49;;;;;;;77.33;51.93;;;;;;;;;;5135923;27;20434;-66
2022/08/18 08:01:21;;;;;;;79.73;54.37;;;;;;;;;;5134787;27;20519;-66
2022/08/18 08:03:51;;;;;;;77.10;55.40;;;;;;;;;;5135245;27;20467;-66
2022/08/18 08:06:20;;;;;;;84.10;55.87;;;;;;;;;;5135089;27;20428;-66
2022/08/18 08:08:53;;;;;;;83.70;55.90;;;;;;;;;;5135808;27;20450;-66
2022/08/18 08:11:26;;;;;;;80.23;54.63;;;;;;;;;;5135729;27;20478;-66
2022/08/18 08:13:59;;;;;;;81.80;54.90;;;;;;;;;;5134105;27;20494;-67
2022/08/18 08:16:32;;;;;;;81.80;54.57;;;;;;;;;;5135611;27;20459;-66
2022/08/18 08:19:03;;;;;;;81.60;55.20;;;;;;;;;;5134859;27;20454;-66
2022/08/18 08:21:33;;;;;;;82.60;54.37;;;;;;;;;;5135009;27;20786;-67
2022/08/18 08:24:09;;;;;;;82.63;55.27;;;;;;;;;;5135403;27;20513;-66
2022/08/18 08:26:43;;;;;;;80.47;54.37;;;;;;;;;;5135292;27;20451;-66
2022/08/18 08:29:18;;;;;;;78.97;52.63;;;;;;;;;;5135182;27;20839;-67
2022/08/18 08:31:49;;;;;;;82.73;56.30;;;;;;;;;;5134587;27;20427;-66
2022/08/18 08:34:19;;;;;;;80.10;52.77;;;;;;;;;;5134914;27;20519;-66
2022/08/18 08:36:47;;;;;;;77.37;50.67;;;;;;;;;;5134542;27;20532;-66
2022/08/18 08:39:22;;;;;;;74.53;50.60;;;;;;;;;;5134936;27;20836;-66
2022/08/18 08:41:52;;;;;;;69.53;52.70;;;;;;;;;;5135128;27;20435;-66
2022/08/18 08:44:23;;;;;;;64.83;47.63;;;;;;;;;;5134998;27;20443;-66
2022/08/18 08:46:54;;;;;;;69.53;48.73;;;;;;;;;;5134788;27;20439;-67
2022/08/18 08:49:27;;;;;;;66.23;46.13;;;;;;;;;;5134557;27;20438;-66
2022/08/18 08:51:57;;;;;;;63.53;43.73;;;;;;;;;;5134649;27;20432;-66
2022/08/18 08:54:25;;;;;;;57.97;41.30;;;;;;;;;;5135034;27;20476;-66
2022/08/18 08:56:54;;;;;;;65.53;45.30;;;;;;;;;;5134569;27;20862;-66
2022/08/18 08:59:24;;;;;;;65.23;47.33;;;;;;;;;;5135120;27;20447;-66
2022/08/18 09:01:56;;;;;;;66.50;45.70;;;;;;;;;;5134223;27;20946;-67
2022/08/18 09:04:40;;;;;;;61.73;44.30;;;;;;;;;;5134324;27;20523;-66
2022/08/18 09:07:16;;;;;;;59.27;44.10;;;;;;;;;;5134128;27;20516;-66
2022/08/18 09:09:53;;;;;;;59.13;43.47;;;;;;;;;;5135410;28;20819;-67
2022/08/18 09:12:33;;;;;;;46.20;36.57;;;;;;;;;;5134862;28;20860;-66
2022/08/18 09:15:21;;;;;;;40.50;34.20;;;;;;;;;;5134866;28;20493;-67
2022/08/18 09:17:54;;;;;;;36.83;31.60;;;;;;;;;;5127590;28;20775;-67
2022/08/18 09:20:36;;;;;;;34.43;28.60;;;;;;;;;;5134743;28;20476;-66
2022/08/18 09:23:07;;;;;;;31.40;28.10;;;;;;;;;;5134015;28;20418;-66
2022/08/18 09:25:47;;;;;;;30.20;26.90;;;;;;;;;;5134657;28;20495;-66
2022/08/18 09:28:15;;;;;;;28.83;25.73;;;;;;;;;;5134350;28;20429;-66
2022/08/18 09:30:45;;;;;;;29.37;26.23;;;;;;;;;;5134286;28;20447;-67
2022/08/18 09:33:19;;;;;;;27.43;24.40;;;;;;;;;;5134393;28;20449;-67
2022/08/18 09:36:05;;;;;;;31.50;25.53;;;;;;;;;;5134321;28;20433;-67
2022/08/18 09:41:31;;;;;;;31.70;25.97;;;;;;;;;;5134119;27;20412;-66
2022/08/18 09:44:09;;;;;;;28.60;25.30;;;;;;;;;;5137743;27;20457;-67
2022/08/18 09:46:57;;;;;;;25.50;22.80;;;;;;;;;;5137878;27;20426;-67
2022/08/18 09:49:48;;;;;;;29.53;24.03;;;;;;;;;;5138395;27;20434;-66
2022/08/18 09:52:34;;;;;;;30.90;25.70;;;;;;;;;;5138872;27;20417;-66
2022/08/18 09:55:03;;;;;;;28.07;24.60;;;;;;;;;;5137887;27;20516;-66
2022/08/18 09:57:31;;;;;;;24.43;21.90;;;;;;;;;;5137922;27;20491;-66
2022/08/18 10:00:19;;;;;;;25.03;22.50;;;;;;;;;;5137672;27;20862;-67
2022/08/18 10:03:11;;;;;;;23.43;21.10;;;;;;;;;;5138136;27;20421;-66
2022/08/18 10:05:40;;;;;;;26.10;22.53;;;;;;;;;;5138163;27;20524;-66
2022/08/18 10:08:40;;;;;;;25.60;21.83;;;;;;;;;;5137661;27;20543;-66
2022/08/18 10:11:18;;;;;;;25.20;22.60;;;;;;;;;;5054389;28;20548;-66
2022/08/18 10:13:50;;;;;;;25.83;23.13;;;;;;;;;;5053924;28;22418;-66
2022/08/18 10:16:22;;;;;;;26.03;23.33;;;;;;;;;;5101437;27;20448;-66
2022/08/18 10:18:55;;;;;;;25.93;22.93;;;;;;;;;;5137706;27;20775;-66
2022/08/18 10:21:27;;;;;;;25.70;22.30;;;;;;;;;;5137616;27;20430;-66
2022/08/18 10:23:57;;;;;;;24.20;21.80;;;;;;;;;;5137700;27;20840;-67
2022/08/18 10:26:42;;;;;;;22.70;20.30;;;;;;;;;;5137452;27;20446;-67
2022/08/18 10:29:11;;;;;;;21.73;19.47;;;;;;;;;;5137318;27;20434;-66
2022/08/18 10:31:53;;;;;;;25.47;22.77;;;;;;;;;;5137354;27;20942;-66
2022/08/18 10:34:35;;;;;;;21.77;19.57;;;;;;;;;;5136719;27;20488;-67
2022/08/18 10:37:04;;;;;;;21.23;18.93;;;;;;;;;;5137303;27;20435;-67
2022/08/18 10:39:44;;;;;;;22.00;19.83;;;;;;;;;;5136851;27;20446;-66
2022/08/18 10:42:14;;;;;;;21.37;17.47;;;;;;;;;;5137035;27;20458;-67
2022/08/18 10:44:43;;;;;;;18.60;16.70;;;;;;;;;;5137767;27;20551;-67
2022/08/18 10:47:11;;;;;;;17.93;16.30;;;;;;;;;;5137110;27;20434;-67
2022/08/18 10:49:38;;;;;;;20.53;18.20;;;;;;;;;;5136667;27;20443;-67
2022/08/18 10:52:29;;;;;;;19.50;17.17;;;;;;;;;;5137521;27;20531;-66
2022/08/18 10:55:06;;;;;;;18.03;16.33;;;;;;;;;;5136278;27;20477;-66
2022/08/18 10:57:47;;;;;;;18.90;16.70;;;;;;;;;;5136559;27;20908;-67
2022/08/18 11:00:18;;;;;;;18.87;16.87;;;;;;;;;;5136552;27;20517;-67
2022/08/18 11:02:54;;;;;;;18.77;16.87;;;;;;;;;;5136715;27;20471;-67
2022/08/18 11:05:24;;;;;;;18.70;16.80;;;;;;;;;;5136483;27;20514;-67
2022/08/18 11:07:55;;;;;;;19.13;17.20;;;;;;;;;;5136551;27;20489;-67
2022/08/18 11:10:35;;;;;;;19.47;17.50;;;;;;;;;;5136832;27;20851;-67
2022/08/18 11:13:09;;;;;;;18.87;16.93;;;;;;;;;;5136149;27;20463;-67
2022/08/18 11:15:40;;;;;;;18.37;16.57;;;;;;;;;;5136389;27;20574;-66
2022/08/18 11:18:14;;;;;;;19.43;15.97;;;;;;;;;;5136150;27;20425;-67
2022/08/18 11:20:42;;;;;;;21.07;17.33;;;;;;;;;;5136125;27;20424;-67
2022/08/18 11:23:13;;;;;;;19.20;17.40;;;;;;;;;;5135983;27;20982;-67
2022/08/18 11:25:43;;;;;;;19.50;17.50;;;;;;;;;;5136786;27;20761;-67
2022/08/18 11:28:15;;;;;;;20.33;18.33;;;;;;;;;;5136254;27;20513;-67
2022/08/18 11:30:45;;;;;;;18.20;16.23;;;;;;;;;;5136580;27;20428;-67
2022/08/18 11:33:15;;;;;;;18.50;16.50;;;;;;;;;;5136239;27;20511;-67
2022/08/18 11:35:47;;;;;;;18.00;15.90;;;;;;;;;;5135608;27;20573;-67
2022/08/18 11:38:15;;;;;;;17.77;15.70;;;;;;;;;;5136620;27;20440;-67
2022/08/18 11:40:45;;;;;;;17.93;16.13;;;;;;;;;;5136057;27;20534;-67
2022/08/18 11:43:15;;;;;;;15.83;14.33;;;;;;;;;;5135772;27;20476;-68
2022/08/18 11:45:51;;;;;;;15.50;14.00;;;;;;;;;;5135606;27;20455;-67
2022/08/18 11:48:20;;;;;;;15.83;14.30;;;;;;;;;;5135504;27;20425;-67
2022/08/18 11:50:49;;;;;;;16.73;15.13;;;;;;;;;;5135591;27;20945;-67
2022/08/18 11:53:25;;;;;;;15.70;14.10;;;;;;;;;;5135706;27;20525;-67
2022/08/18 11:56:12;;;;;;;15.23;13.77;;;;;;;;;;5135933;27;20812;-67
2022/08/18 11:58:40;;;;;;;15.70;14.10;;;;;;;;;;5135601;27;20464;-67
2022/08/18 12:01:08;;;;;;;15.80;14.20;;;;;;;;;;5134869;27;20536;-67
2022/08/18 12:03:41;;;;;;;16.40;14.90;;;;;;;;;;5135507;27;20440;-68
2022/08/18 12:06:14;;;;;;;16.00;14.40;;;;;;;;;;5135516;27;20429;-66
2022/08/18 12:08:50;;;;;;;14.83;13.50;;;;;;;;;;5135053;27;20427;-67
2022/08/18 12:11:21;;;;;;;15.70;14.10;;;;;;;;;;5135315;27;20909;-67
2022/08/18 12:13:49;;;;;;;15.63;14.03;;;;;;;;;;5135214;27;20478;-67
2022/08/18 12:16:18;;;;;;;16.60;15.10;;;;;;;;;;5134932;27;20462;-67
2022/08/18 12:18:45;;;;;;;20.27;16.60;;;;;;;;;;5135369;27;20445;-67
2022/08/18 12:21:12;;;;;;;16.77;15.17;;;;;;;;;;5134837;27;20496;-67
2022/08/18 12:23:42;;;;;;;16.83;14.53;;;;;;;;;;5134751;27;20449;-67
2022/08/18 12:26:09;;;;;;;15.47;14.07;;;;;;;;;;5135170;27;20493;-67
2022/08/18 12:28:39;;;;;;;15.57;14.20;;;;;;;;;;5134648;27;20437;-68
2022/08/18 12:31:07;;;;;;;15.87;14.50;;;;;;;;;;5135079;27;20830;-67
2022/08/18 12:33:34;;;;;;;17.23;15.43;;;;;;;;;;5135252;27;20919;-67
2022/08/18 12:36:02;;;;;;;16.53;15.00;;;;;;;;;;5134685;27;20470;-68
2022/08/18 12:38:29;;;;;;;13.60;12.40;;;;;;;;;;5135033;27;20449;-67
2022/08/18 12:40:57;;;;;;;14.40;13.00;;;;;;;;;;5134776;27;20791;-67
2022/08/18 12:43:25;;;;;;;15.43;13.80;;;;;;;;;;5134517;27;20442;-68
2022/08/18 12:45:53;;;;;;;17.17;12.77;;;;;;;;;;5134396;27;20527;-67
2022/08/18 12:48:20;;;;;;;17.60;13.83;;;;;;;;;;5134843;27;20538;-67
2022/08/18 12:50:48;;;;;;;15.50;14.03;;;;;;;;;;5134694;27;20805;-67
2022/08/18 12:53:15;;;;;;;14.33;12.43;;;;;;;;;;5134801;27;20530;-66
2022/08/18 12:55:44;;;;;;;11.53;10.43;;;;;;;;;;5134518;27;20471;-67
2022/08/18 12:58:12;;;;;;;9.17;8.40;;;;;;;;;;5134657;27;20491;-67
2022/08/18 13:00:40;;;;;;;9.53;8.63;;;;;;;;;;5134564;27;20519;-67
2022/08/18 13:03:09;;;;;;;9.43;8.53;;;;;;;;;;5134977;27;20453;-67
2022/08/18 13:05:37;;;;;;;10.00;9.00;;;;;;;;;;5134660;27;20525;-67
2022/08/18 13:08:05;;;;;;;10.60;9.07;;;;;;;;;;5134699;27;20444;-67
2022/08/18 13:10:32;;;;;;;10.50;9.60;;;;;;;;;;5134392;27;20530;-67
2022/08/18 13:12:59;;;;;;;12.53;11.23;;;;;;;;;;5134489;28;20442;-67
2022/08/18 13:15:27;;;;;;;12.60;11.50;;;;;;;;;;5134481;28;20484;-67
2022/08/18 13:17:54;;;;;;;14.63;12.20;;;;;;;;;;5137559;27;20465;-67
2022/08/18 13:20:23;;;;;;;14.23;12.80;;;;;;;;;;5138827;27;20438;-68
2022/08/18 13:22:51;;;;;;;11.67;10.50;;;;;;;;;;5138927;27;20844;-72
2022/08/18 13:25:18;;;;;;;12.97;11.67;;;;;;;;;;5138259;27;20448;-66
2022/08/18 13:27:46;;;;;;;10.27;9.37;;;;;;;;;;5138746;27;20491;-66
2022/08/18 13:30:15;;;;;;;11.57;10.47;;;;;;;;;;5138181;27;20413;-66
2022/08/18 13:32:43;;;;;;;9.67;8.77;;;;;;;;;;5138007;27;20470;-66
2022/08/18 13:35:11;;;;;;;11.90;10.60;;;;;;;;;;5137984;27;20559;-67
2022/08/18 13:37:40;;;;;;;10.13;9.17;;;;;;;;;;5138367;27;21022;-66
2022/08/18 13:40:08;;;;;;;10.23;9.33;;;;;;;;;;5137948;27;20449;-67
2022/08/18 13:42:42;;;;;;;8.40;7.70;;;;;;;;;;5138364;27;20466;-66
2022/08/18 13:45:13;;;;;;;11.20;9.10;;;;;;;;;;5137544;27;20554;-67
2022/08/18 13:47:41;;;;;;;10.80;9.23;;;;;;;;;;5136553;27;20518;-66
2022/08/18 13:50:09;;;;;;;9.30;8.33;;;;;;;;;;5136823;27;20955;-66
2022/08/18 13:52:37;;;;;;;10.40;9.53;;;;;;;;;;5138051;27;20442;-66
2022/08/18 13:55:07;;;;;;;9.83;9.03;;;;;;;;;;5137580;27;20609;-66
2022/08/18 13:57:34;;;;;;;10.23;9.23;;;;;;;;;;5137729;27;20445;-66
2022/08/18 14:00:01;;;;;;;11.10;9.90;;;;;;;;;;5138134;27;20479;-67
2022/08/18 14:02:29;;;;;;;9.43;8.60;;;;;;;;;;5137562;27;20475;-66
2022/08/18 14:04:57;;;;;;;10.37;9.10;;;;;;;;;;5137567;27;20530;-67
2022/08/18 14:07:24;;;;;;;9.63;8.83;;;;;;;;;;5137927;27;20449;-67
2022/08/18 14:09:51;;;;;;;11.20;8.83;;;;;;;;;;5137777;27;20499;-66
2022/08/18 14:12:22;;;;;;;10.70;9.60;;;;;;;;;;5137009;27;20798;-67
2022/08/18 14:14:50;;;;;;;10.00;9.17;;;;;;;;;;5137508;27;20474;-66
2022/08/18 14:17:17;;;;;;;9.50;8.70;;;;;;;;;;5136860;27;20527;-67
2022/08/18 14:28:00;;;;;;;10.83;9.40;;;;;;;;;;5136603;27;20421;-66
2022/08/18 14:30:28;;;;;;;9.83;8.43;;;;;;;;;;5137369;27;20431;-66
2022/08/18 14:32:55;;;;;;;8.17;7.40;;;;;;;;;;5137316;27;20926;-66
2022/08/18 14:35:22;;;;;;;9.60;8.73;;;;;;;;;;5137719;27;20486;-67
2022/08/18 14:37:50;;;;;;;8.80;7.70;;;;;;;;;;5137258;27;20440;-66
2022/08/18 14:40:18;;;;;;;10.13;8.30;;;;;;;;;;5136834;27;20531;-66
2022/08/18 14:42:47;;;;;;;8.93;8.13;;;;;;;;;;5136545;27;20447;-66
2022/08/18 14:45:15;;;;;;;8.10;7.30;;;;;;;;;;5136839;27;20550;-66
2022/08/18 14:47:43;;;;;;;9.97;7.80;;;;;;;;;;5136150;27;20475;-66
2022/08/18 14:50:12;;;;;;;9.20;7.13;;;;;;;;;;5136238;27;20442;-67
2022/08/18 14:52:40;;;;;;;7.27;6.67;;;;;;;;;;5136166;27;20451;-67
2022/08/18 14:55:10;;;;;;;9.37;8.47;;;;;;;;;;5136865;27;20500;-66
2022/08/18 14:57:37;;;;;;;8.70;8.00;;;;;;;;;;5136181;27;20433;-66
2022/08/18 15:00:06;;;;;;;8.63;7.80;;;;;;;;;;5136744;27;20523;-67